Time;durP1;ratioP1;P1;durP2;ratioP2;P2;SDS_P1;SDS_P2;PMS_P1;PMS_P2;Temp;Humidity;BMP_temperature;BMP_pressure;BME280_temperature;BME280_humidity;BME280_pressure;Samples;Min_cycle;Max_cycle;Signal;HPM_P1;HPM_P2
2024/01/19 00:05:23;;;;;;;13.82;4.03;;;;;;;17.30;100.00;101178.63;10559087;28;20052;-83
2024/01/19 00:10:45;;;;;;;8.90;2.67;;;;;;;17.32;100.00;101168.84;10574296;28;20428;-82
2024/01/19 00:16:08;;;;;;;11.68;3.10;;;;;;;17.28;100.00;101155.50;10560577;28;20117;-80
2024/01/19 00:21:32;;;;;;;9.77;2.63;;;;;;;17.37;100.00;101160.81;10559886;28;20084;-81
2024/01/19 00:26:55;;;;;;;12.38;2.50;;;;;;;17.31;100.00;101152.84;10574261;28;20074;-82
2024/01/19 00:32:17;;;;;;;10.18;1.98;;;;;;;17.31;100.00;101148.38;10580814;28;20079;-81
2024/01/19 00:37:41;;;;;;;15.07;3.08;;;;;;;17.42;100.00;101165.22;10555449;28;20136;-83
2024/01/19 00:43:04;;;;;;;15.27;3.40;;;;;;;17.26;100.00;101176.00;10525144;28;20048;-83
2024/01/19 00:48:26;;;;;;;14.38;2.85;;;;;;;17.26;100.00;101178.66;10560755;28;20058;-83
2024/01/19 00:53:50;;;;;;;10.82;3.10;;;;;;;17.30;100.00;101191.97;10561861;28;20447;-83
2024/01/19 00:59:13;;;;;;;12.25;3.22;;;;;;;17.27;100.00;101186.63;10581585;28;20040;-83
2024/01/19 01:04:35;;;;;;;14.68;3.08;;;;;;;17.36;100.00;101170.59;10566974;28;20142;-83
2024/01/19 01:09:59;;;;;;;10.73;2.60;;;;;;;17.37;100.00;101161.69;10563401;28;20048;-83
2024/01/19 01:15:22;;;;;;;17.88;2.60;;;;;;;17.43;100.00;101155.44;10579609;28;20601;-83
2024/01/19 01:20:45;;;;;;;14.40;1.98;;;;;;;17.52;100.00;101148.22;10545407;28;20066;-81
2024/01/19 01:26:08;;;;;;;11.38;2.28;;;;;;;17.57;100.00;101145.56;10573887;28;20439;-80
2024/01/19 01:31:31;;;;;;;14.70;1.85;;;;;;;17.71;100.00;101145.50;10553912;27;20043;-80
2024/01/19 01:36:56;;;;;;;9.30;2.13;;;;;;;17.79;100.00;101143.63;10579690;28;20108;-81
2024/01/19 01:42:20;;;;;;;14.50;2.78;;;;;;;17.94;100.00;101146.19;10579635;28;20051;-81
2024/01/19 01:47:43;;;;;;;12.65;2.13;;;;;;;17.86;100.00;101121.31;10551017;28;20062;-82
2024/01/19 01:53:06;;;;;;;8.80;2.22;;;;;;;17.91;96.58;101122.19;10565505;28;20146;-82
2024/01/19 01:58:30;;;;;;;9.60;1.73;;;;;;;17.92;93.99;101097.22;10565000;28;20424;-81
2024/01/19 02:03:55;;;;;;;9.98;2.08;;;;;;;17.99;91.95;101098.03;10527155;28;20146;-82
2024/01/19 02:09:19;;;;;;;14.02;2.00;;;;;;;18.13;88.95;101085.44;10527344;28;20054;-83
2024/01/19 02:14:45;;;;;;;9.93;1.83;;;;;;;18.08;87.32;101084.59;10563857;28;20052;-82
2024/01/19 02:20:10;;;;;;;8.75;2.50;;;;;;;17.88;88.00;101085.69;10565465;28;20069;-82
2024/01/19 02:25:34;;;;;;;6.65;2.13;;;;;;;17.93;82.96;101083.84;10548887;28;20742;-82
2024/01/19 02:30:56;;;;;;;7.88;1.83;;;;;;;17.96;78.12;101076.72;10563692;28;20058;-81
2024/01/19 02:36:19;;;;;;;12.15;2.75;;;;;;;18.04;74.17;101081.09;10563393;28;20055;-81
2024/01/19 02:41:45;;;;;;;9.73;2.58;;;;;;;18.14;70.11;101064.06;10548930;28;20143;-83
2024/01/19 02:47:07;;;;;;;14.45;3.95;;;;;;;18.36;61.30;101077.19;10562665;28;20053;-81
2024/01/19 02:52:30;;;;;;;13.27;2.95;;;;;;;18.44;57.77;101059.28;10573992;28;20047;-81
2024/01/19 02:57:54;;;;;;;13.50;2.35;;;;;;;18.45;54.98;101061.91;10570879;28;20171;-81
2024/01/19 03:03:17;;;;;;;22.83;3.70;;;;;;;18.44;53.54;101053.94;10561276;28;20134;-80
2024/01/19 03:08:39;;;;;;;16.33;2.72;;;;;;;18.29;56.43;101038.94;10548850;28;20496;-80
2024/01/19 03:14:03;;;;;;;12.15;2.35;;;;;;;18.33;58.88;101057.59;10562179;28;20083;-80
2024/01/19 03:19:26;;;;;;;17.50;3.65;;;;;;;18.29;63.84;101046.97;10560506;28;20043;-80
2024/01/19 03:24:48;;;;;;;14.93;3.15;;;;;;;18.33;77.43;101070.97;10571410;28;20056;-79
2024/01/19 03:30:14;;;;;;;15.75;2.50;;;;;;;18.34;97.96;101074.53;10547137;28;20108;-80
2024/01/19 03:35:36;;;;;;;11.23;2.70;;;;;;;18.18;100.00;101083.63;10574866;28;21199;-80
2024/01/19 03:41:00;;;;;;;6.15;1.60;;;;;;;18.24;100.00;101110.28;10590834;27;20595;-82
2024/01/19 03:46:24;;;;;;;10.68;2.45;;;;;;;18.21;100.00;101092.50;10560099;28;20063;-81
2024/01/19 03:52:04;;;;;;;7.22;2.00;;;;;;;18.23;100.00;101096.03;10561455;28;20048;-83
2024/01/19 03:57:27;;;;;;;8.18;1.52;;;;;;;18.08;100.00;101114.88;10549876;28;20051;-83
2024/01/19 04:02:51;;;;;;;12.85;2.13;;;;;;;18.02;100.00;101112.28;10559770;28;20478;-82
2024/01/19 04:08:13;;;;;;;11.85;2.38;;;;;;;18.12;100.00;101110.38;10568993;28;20089;-83
2024/01/19 04:13:36;;;;;;;9.50;2.38;;;;;;;18.11;100.00;101108.63;10583057;28;20108;-82
2024/01/19 04:19:00;;;;;;;15.40;2.88;;;;;;;18.20;100.00;101130.78;10563312;28;20063;-83
2024/01/19 04:24:22;;;;;;;14.75;3.53;;;;;;;18.30;100.00;101142.31;10582859;28;20044;-82
2024/01/19 04:29:45;;;;;;;13.00;2.63;;;;;;;18.30;100.00;101148.53;10566441;28;20063;-83
2024/01/19 04:35:09;;;;;;;14.65;3.38;;;;;;;18.26;100.00;101162.81;10579444;27;20043;-82
2024/01/19 04:40:32;;;;;;;16.25;2.85;;;;;;;18.33;100.00;101151.16;10580770;28;20227;-84
2024/01/19 04:45:54;;;;;;;14.88;4.10;;;;;;;18.36;100.00;101158.28;10553112;28;20048;-82
2024/01/19 04:51:19;;;;;;;16.13;3.85;;;;;;;18.42;100.00;101168.00;10545618;28;20052;-82
2024/01/19 04:56:41;;;;;;;15.23;2.72;;;;;;;18.27;100.00;101169.03;10567313;28;20108;-84
2024/01/19 05:02:04;;;;;;;21.48;3.13;;;;;;;18.25;100.00;101150.34;10566601;28;20075;-83
2024/01/19 05:07:28;;;;;;;19.58;3.65;;;;;;;18.33;100.00;101159.19;10540300;28;20488;-83
2024/01/19 05:12:50;;;;;;;20.35;3.03;;;;;;;18.26;100.00;101135.19;10574910;28;20078;-83
2024/01/19 05:18:13;;;;;;;12.18;3.08;;;;;;;18.27;100.00;101161.03;10561004;28;20100;-84
2024/01/19 05:23:37;;;;;;;15.48;3.00;;;;;;;18.24;100.00;101188.69;10564741;28;20048;-83
2024/01/19 05:28:59;;;;;;;15.32;3.13;;;;;;;18.31;100.00;101178.81;10580689;28;20206;-82
2024/01/19 05:34:22;;;;;;;19.08;3.38;;;;;;;18.31;100.00;101186.84;10574313;28;20047;-83
2024/01/19 05:39:46;;;;;;;17.10;3.20;;;;;;;18.41;100.00;101183.16;10566517;28;20484;-84
2024/01/19 05:45:09;;;;;;;17.98;2.75;;;;;;;18.41;100.00;101168.91;10537719;28;20052;-82
2024/01/19 05:50:32;;;;;;;11.57;3.58;;;;;;;18.46;100.00;101151.03;10550738;28;20047;-83
2024/01/19 05:55:56;;;;;;;21.83;3.95;;;;;;;18.52;100.00;101169.69;10579633;28;20056;-82
2024/01/19 06:01:18;;;;;;;19.50;3.33;;;;;;;18.52;100.00;101156.31;10557460;28;20054;-83
2024/01/19 06:06:41;;;;;;;15.18;3.65;;;;;;;18.61;100.00;101134.88;10577792;28;20052;-84
2024/01/19 06:12:07;;;;;;;15.13;3.72;;;;;;;18.69;100.00;101181.13;10578614;27;20050;-82
2024/01/19 06:17:29;;;;;;;13.95;3.60;;;;;;;18.87;100.00;101167.53;10561952;28;20043;-81
2024/01/19 06:22:51;;;;;;;17.60;3.67;;;;;;;19.09;100.00;101185.13;10563337;28;20452;-82
2024/01/19 06:28:15;;;;;;;14.85;3.67;;;;;;;19.11;100.00;101169.91;10562739;28;20048;-82
2024/01/19 06:33:40;;;;;;;25.33;4.15;;;;;;;19.24;100.00;101153.69;10593368;27;20047;-82
2024/01/19 06:39:02;;;;;;;17.42;3.83;;;;;;;19.25;100.00;101160.81;10608320;27;20051;-83
2024/01/19 06:44:27;;;;;;;19.73;3.75;;;;;;;19.20;100.00;101162.66;10584042;27;20040;-83
2024/01/19 06:49:49;;;;;;;14.82;3.65;;;;;;;19.28;100.00;101190.22;10566727;28;20043;-83
2024/01/19 06:55:12;;;;;;;18.10;4.45;;;;;;;19.38;100.00;101165.09;10586353;27;20054;-82
2024/01/19 07:00:36;;;;;;;14.18;4.72;;;;;;;19.51;100.00;101139.94;10562614;28;20044;-83
2024/01/19 07:06:01;;;;;;;19.88;6.38;;;;;;;19.53;100.00;101153.31;10570843;28;20059;-84
2024/01/19 07:11:23;;;;;;;18.05;5.57;;;;;;;19.68;100.00;101132.53;10571868;28;20043;-83
2024/01/19 07:16:47;;;;;;;15.45;4.63;;;;;;;19.92;85.06;101125.88;10557301;28;20391;-84
2024/01/19 07:22:10;;;;;;;11.55;3.60;;;;;;;20.07;71.45;101140.84;10559878;28;20055;-82
2024/01/19 07:27:33;;;;;;;32.55;12.98;;;;;;;20.12;67.61;101145.19;10569076;28;20051;-84
2024/01/19 07:32:57;;;;;;;13.90;3.47;;;;;;;20.30;60.30;101160.06;10559333;28;20055;-83
2024/01/19 07:38:23;;;;;;;17.95;4.47;;;;;;;20.47;55.82;101125.81;10565624;28;20093;-82
2024/01/19 07:43:46;;;;;;;19.23;5.40;;;;;;;20.54;53.93;101135.53;10557842;28;20053;-81
2024/01/19 07:49:11;;;;;;;18.88;4.13;;;;;;;20.95;48.48;101141.81;10571597;28;20051;-81
2024/01/19 07:54:33;;;;;;;42.65;19.05;;;;;;;21.46;46.69;101129.13;10573764;28;20052;-84
2024/01/19 07:59:56;;;;;;;13.57;3.45;;;;;;;21.50;47.47;101141.53;10558521;28;20040;-81
2024/01/19 08:05:20;;;;;;;19.05;7.22;;;;;;;21.35;59.32;101123.09;10559026;28;20104;-79
2024/01/19 08:10:42;;;;;;;14.50;4.90;;;;;;;21.21;61.95;101126.06;10569991;28;20047;-80
2024/01/19 08:16:07;;;;;;;31.83;5.85;;;;;;;21.15;68.27;101146.78;10572819;28;20044;-80
2024/01/19 08:21:31;;;;;;;15.30;4.60;;;;;;;21.04;86.38;101139.84;10559478;28;20503;-79
2024/01/19 08:26:54;;;;;;;13.52;3.05;;;;;;;21.48;74.62;101121.88;10567319;28;20043;-80
2024/01/19 08:32:16;;;;;;;17.65;7.55;;;;;;;21.81;57.25;101122.88;10577001;27;20040;-81
2024/01/19 08:37:42;;;;;;;15.85;4.18;;;;;;;21.84;50.03;101123.69;10572633;28;20047;-80
2024/01/19 08:43:04;;;;;;;15.20;3.22;;;;;;;22.00;48.24;101096.44;10569667;28;20083;-82
2024/01/19 08:48:27;;;;;;;18.08;4.07;;;;;;;21.84;50.18;101086.06;10554177;28;20112;-84
2024/01/19 08:53:51;;;;;;;20.40;6.78;;;;;;;21.89;56.80;101069.78;10554577;28;20075;-83
2024/01/19 08:59:14;;;;;;;13.82;5.18;;;;;;;21.69;61.01;101093.59;10582004;28;20547;-83
2024/01/19 09:04:36;;;;;;;25.73;5.97;;;;;;;21.47;76.18;101085.19;10566779;28;20071;-82
2024/01/19 09:10:00;;;;;;;23.10;5.85;;;;;;;21.42;94.00;101030.69;10550244;28;20476;-81
2024/01/19 09:15:23;;;;;;;20.50;5.82;;;;;;;21.66;94.09;101061.44;10566745;28;20736;-83
2024/01/19 09:20:45;;;;;;;15.07;5.10;;;;;;;21.57;95.00;101062.56;10565832;28;20051;-82
2024/01/19 09:26:17;;;;;;;17.00;5.18;;;;;;;21.40;100.00;101056.69;10594234;27;20058;-82
2024/01/19 09:31:52;;;;;;;22.75;5.13;;;;;;;21.21;100.00;101067.00;10559116;28;20066;-84
2024/01/19 09:37:15;;;;;;;23.60;6.32;;;;;;;20.87;100.00;101080.25;10579881;28;20052;-83
2024/01/19 09:42:42;;;;;;;21.85;5.68;;;;;;;20.72;100.00;101069.88;10565998;28;20054;-83
2024/01/19 09:48:19;;;;;;;17.90;5.45;;;;;;;20.84;100.00;101061.53;10579391;27;20052;-82
2024/01/19 09:53:50;;;;;;;28.45;7.07;;;;;;;22.30;100.00;101054.38;10565121;28;20127;-83
2024/01/19 09:59:16;;;;;;;19.20;4.15;;;;;;;22.69;100.00;101077.47;10579897;28;20504;-84
2024/01/19 10:04:48;;;;;;;20.17;5.10;;;;;;;24.53;85.82;101085.81;10578981;27;20056;-82
2024/01/19 10:10:12;;;;;;;17.33;5.07;;;;;;;24.34;77.44;101071.22;10565230;28;20044;-84
2024/01/19 10:15:37;;;;;;;14.77;3.90;;;;;;;23.38;81.28;101085.22;10563781;28;20062;-83
2024/01/19 10:20:59;;;;;;;29.77;13.15;;;;;;;22.97;73.62;101086.50;10563759;28;20040;-82
2024/01/19 10:26:22;;;;;;;26.25;9.50;;;;;;;22.43;77.61;101055.81;10563766;28;20047;-82
2024/01/19 10:31:50;;;;;;;36.40;20.73;;;;;;;21.76;74.50;101066.53;10578014;28;20262;-84
2024/01/19 10:37:22;;;;;;;;;;;;;;;21.96;71.64;101084.88;10564431;28;20062;-81
2024/01/19 10:42:47;;;;;;;31.23;14.85;;;;;;;22.23;68.91;101084.16;10538707;28;19943;-82
2024/01/19 10:48:11;;;;;;;16.52;5.25;;;;;;;22.27;84.29;101101.06;10562823;28;20047;-83
2024/01/19 10:53:34;;;;;;;18.38;4.95;;;;;;;22.09;93.31;101102.47;10563056;28;20445;-81
2024/01/19 10:58:56;;;;;;;19.98;4.68;;;;;;;21.95;95.08;101068.75;10562989;28;20456;-82
2024/01/19 11:04:20;;;;;;;24.88;11.60;;;;;;;22.70;87.55;101071.16;10576936;28;20054;-81
2024/01/19 11:09:43;;;;;;;20.30;5.80;;;;;;;23.48;67.86;101069.69;10562329;28;20065;-81
2024/01/19 11:15:10;;;;;;;24.35;6.43;;;;;;;24.16;65.20;101059.22;10561901;28;20044;-83
2024/01/19 11:20:35;;;;;;;20.83;7.00;;;;;;;24.03;59.59;101046.22;10562551;28;20463;-82
2024/01/19 11:26:11;;;;;;;15.50;4.40;;;;;;;24.27;61.35;101034.59;10519596;28;20121;-83
2024/01/19 11:31:35;;;;;;;19.85;4.55;;;;;;;24.12;64.56;101035.13;10571090;28;20052;-83
2024/01/19 11:36:59;;;;;;;21.75;5.63;;;;;;;24.08;64.63;101025.38;10555758;28;20036;-81
2024/01/19 11:42:45;;;;;;;20.02;5.03;;;;;;;24.23;62.79;101035.63;10564902;28;20055;-82
2024/01/19 11:48:08;;;;;;;18.98;4.32;;;;;;;24.10;72.10;101043.25;10556131;28;20129;-82
2024/01/19 11:53:55;;;;;;;25.15;3.92;;;;;;;23.78;81.70;101038.09;10569550;28;20048;-81
2024/01/19 11:59:21;;;;;;;20.15;4.82;;;;;;;23.48;74.08;101022.97;10573898;28;20564;-82
2024/01/19 12:04:44;;;;;;;24.20;8.07;;;;;;;22.87;79.97;101009.63;10559687;28;20047;-79
2024/01/19 12:10:09;;;;;;;21.98;4.00;;;;;;;22.70;81.41;101019.13;10555475;28;20093;-81
2024/01/19 12:15:32;;;;;;;23.00;4.85;;;;;;;22.82;78.51;101006.22;10555335;28;20047;-81
2024/01/19 12:20:56;;;;;;;15.57;4.00;;;;;;;22.78;81.56;101001.84;10558450;28;20047;-81
2024/01/19 12:26:22;;;;;;;18.73;6.05;;;;;;;22.63;83.78;101003.19;10570018;28;20092;-79
2024/01/19 12:38:41;;;;;;;26.15;4.38;;;;;;;22.55;78.05;101004.31;10430316;28;20102;-81
2024/01/19 12:44:05;;;;;;;23.83;8.40;;;;;;;22.44;77.91;100987.63;10422770;28;20152;-81
2024/01/19 12:49:28;;;;;;;17.90;5.35;;;;;;;22.35;72.78;100990.56;10446844;28;20045;-81
2024/01/19 12:54:50;;;;;;;9.23;3.20;;;;;;;22.36;77.14;100992.34;10414911;28;20059;-83
2024/01/19 13:00:16;;;;;;;19.02;4.13;;;;;;;22.32;74.56;100996.06;10437804;28;20063;-83
2024/01/19 13:05:38;;;;;;;14.90;3.78;;;;;;;22.38;71.11;101009.31;10456586;28;20040;-81
2024/01/19 13:11:08;;;;;;;23.90;3.92;;;;;;;22.26;71.25;101030.25;10541538;28;20575;-82
2024/01/19 13:16:33;;;;;;;15.07;3.55;;;;;;;22.22;69.68;101015.13;10578664;28;20044;-85
2024/01/19 13:21:56;;;;;;;11.40;3.28;;;;;;;22.09;75.16;101023.59;10553737;27;20488;-84
2024/01/19 13:27:19;;;;;;;19.55;4.47;;;;;;;22.08;76.88;101027.19;10578399;27;20046;-83
2024/01/19 13:32:43;;;;;;;22.77;4.75;;;;;;;21.99;72.77;101033.69;10533941;28;20040;-81
2024/01/19 13:38:06;;;;;;;17.05;2.70;;;;;;;21.80;70.38;101017.16;10578111;28;20047;-82
2024/01/19 13:43:29;;;;;;;16.38;4.00;;;;;;;21.77;72.95;101029.81;10583391;27;20052;-82
2024/01/19 13:48:54;;;;;;;17.77;4.57;;;;;;;21.59;83.00;101027.59;10563526;27;20112;-80
2024/01/19 13:54:16;;;;;;;23.35;4.60;;;;;;;21.51;85.67;101032.28;10566402;27;20048;-84
2024/01/19 13:59:39;;;;;;;20.25;5.15;;;;;;;21.44;96.30;101010.94;10566977;28;20384;-81
2024/01/19 14:05:03;;;;;;;21.92;4.22;;;;;;;21.25;100.00;101012.31;10578371;27;20052;-82
2024/01/19 14:10:26;;;;;;;26.23;4.40;;;;;;;21.04;100.00;101007.41;10578210;28;20115;-86
2024/01/19 14:15:49;;;;;;;22.45;4.90;;;;;;;20.71;100.00;101019.78;10575948;28;20035;-78
2024/01/19 14:21:13;;;;;;;27.13;5.43;;;;;;;20.45;100.00;101025.72;10548109;28;20040;-82
2024/01/19 14:26:36;;;;;;;25.73;5.32;;;;;;;20.06;100.00;101013.06;10577133;28;20055;-81
2024/01/19 14:32:03;;;;;;;15.05;3.67;;;;;;;19.89;100.00;101008.91;10571202;28;20464;-83
2024/01/19 14:37:31;;;;;;;18.35;3.83;;;;;;;19.78;100.00;100991.25;10561321;28;20112;-82
2024/01/19 14:43:03;;;;;;;;;;;;;;;19.70;100.00;101006.59;10576982;27;20055;-83
2024/01/19 14:48:27;;;;;;;30.02;4.80;;;;;;;19.45;100.00;101019.50;10562207;28;19973;-84
2024/01/19 14:53:53;;;;;;;21.08;4.35;;;;;;;19.36;100.00;101015.16;10577445;28;20048;-83
2024/01/19 14:59:15;;;;;;;23.75;4.30;;;;;;;19.16;100.00;101017.31;10560362;27;20044;-83
2024/01/19 15:04:38;;;;;;;28.63;4.45;;;;;;;18.96;100.00;101011.38;10553131;28;20047;-83
2024/01/19 15:10:03;;;;;;;34.60;5.10;;;;;;;18.75;100.00;101017.91;10558004;28;20434;-79
2024/01/19 15:15:25;;;;;;;24.20;4.82;;;;;;;18.64;100.00;101036.75;10554258;28;20135;-81
2024/01/19 15:20:48;;;;;;;33.88;5.50;;;;;;;18.44;100.00;101040.56;10557524;28;20048;-80
2024/01/19 15:26:16;;;;;;;33.75;6.60;;;;;;;18.25;100.00;101053.22;10574794;28;20059;-81
2024/01/19 15:31:39;;;;;;;24.27;4.40;;;;;;;18.11;100.00;101063.22;10590289;27;20068;-79
2024/01/19 15:37:01;;;;;;;28.40;4.82;;;;;;;18.00;100.00;101049.94;10574538;27;20044;-81
2024/01/19 15:42:25;;;;;;;32.17;4.82;;;;;;;17.86;100.00;101043.84;10560092;28;20514;-80
2024/01/19 15:47:48;;;;;;;35.28;6.35;;;;;;;17.79;100.00;101037.69;10557647;28;20047;-84
2024/01/19 15:53:10;;;;;;;30.58;6.60;;;;;;;17.75;100.00;101027.94;10554902;28;20047;-87
2024/01/19 15:58:37;;;;;;;31.00;6.60;;;;;;;17.65;100.00;101055.66;10569454;28;20058;-86
2024/01/19 16:03:59;;;;;;;28.88;5.32;;;;;;;17.59;100.00;101066.31;10568591;28;20487;-80
2024/01/19 16:09:22;;;;;;;28.80;5.80;;;;;;;17.59;100.00;101079.66;10580357;27;20048;-82
2024/01/19 16:14:46;;;;;;;32.10;4.93;;;;;;;17.57;100.00;101075.25;10566316;28;20059;-82
2024/01/19 16:20:10;;;;;;;31.42;4.45;;;;;;;17.69;100.00;101089.41;10559337;28;20050;-81
2024/01/19 16:25:32;;;;;;;29.80;5.13;;;;;;;17.71;100.00;101092.09;10578219;27;20040;-82
2024/01/19 16:30:56;;;;;;;28.13;5.45;;;;;;;17.75;100.00;101089.38;10562568;27;20147;-78
2024/01/19 16:36:19;;;;;;;29.60;6.15;;;;;;;17.75;100.00;101097.38;10580637;27;20066;-80
2024/01/19 16:41:41;;;;;;;33.13;6.18;;;;;;;17.60;100.00;101085.88;10566384;28;20043;-83
2024/01/19 16:47:05;;;;;;;28.92;5.85;;;;;;;17.60;100.00;101089.44;10580216;28;20048;-86
2024/01/19 16:52:28;;;;;;;23.38;4.75;;;;;;;17.54;100.00;101098.41;10559189;28;20104;-83
2024/01/19 16:57:50;;;;;;;24.08;5.90;;;;;;;17.40;100.00;101110.94;10580762;27;20047;-82
2024/01/19 17:03:16;;;;;;;29.48;4.82;;;;;;;17.36;100.00;101130.56;10580797;28;20067;-83
2024/01/19 17:08:38;;;;;;;26.20;5.07;;;;;;;17.31;100.00;101140.38;10544901;28;20388;-82
2024/01/19 17:14:06;;;;;;;30.27;5.68;;;;;;;17.53;100.00;101120.66;10577231;28;20134;-80
2024/01/19 17:19:30;;;;;;;31.88;4.22;;;;;;;17.76;100.00;101130.31;10574401;28;20036;-80
2024/01/19 17:24:53;;;;;;;27.25;5.45;;;;;;;17.83;100.00;101124.91;10563890;28;20051;-79
2024/01/19 17:30:19;;;;;;;21.70;4.80;;;;;;;17.68;100.00;101130.38;10578380;28;20050;-78
2024/01/19 17:35:43;;;;;;;23.23;5.32;;;;;;;17.50;100.00;101135.81;10574139;28;20044;-81
2024/01/19 17:41:06;;;;;;;23.55;5.28;;;;;;;17.28;100.00;101140.38;10564932;28;20098;-82
2024/01/19 17:46:28;;;;;;;23.77;5.47;;;;;;;17.18;100.00;101154.69;10573708;28;20388;-82
2024/01/19 17:51:52;;;;;;;37.38;5.68;;;;;;;17.11;100.00;101159.16;10559230;28;20047;-82
2024/01/19 17:57:15;;;;;;;29.48;6.10;;;;;;;17.25;100.00;101167.09;10562923;28;20047;-83
2024/01/19 18:02:37;;;;;;;35.53;6.72;;;;;;;17.26;100.00;101166.22;10567645;28;20043;-81
2024/01/19 18:08:01;;;;;;;34.58;6.38;;;;;;;17.14;100.00;101158.25;10582432;28;20147;-79
2024/01/19 18:13:24;;;;;;;42.33;6.55;;;;;;;17.14;100.00;101169.81;10579938;28;20054;-79
2024/01/19 18:18:46;;;;;;;24.30;4.40;;;;;;;17.19;100.00;101169.81;10594953;27;20063;-79
2024/01/19 18:24:10;;;;;;;24.63;4.65;;;;;;;17.21;100.00;101170.66;10573415;28;20479;-79
2024/01/19 18:29:33;;;;;;;23.40;4.60;;;;;;;17.26;100.00;101150.22;10565390;28;20132;-80
2024/01/19 18:34:55;;;;;;;29.10;5.15;;;;;;;17.38;100.00;101151.91;10594794;27;20554;-80
2024/01/19 18:40:20;;;;;;;35.08;5.80;;;;;;;17.42;100.00;101159.00;10584502;27;20491;-80
2024/01/19 18:45:42;;;;;;;24.00;5.13;;;;;;;17.48;100.00;101159.84;10562551;27;20681;-80
2024/01/19 18:51:05;;;;;;;24.52;6.63;;;;;;;17.49;100.00;101172.28;10558283;28;20039;-82
2024/01/19 18:56:29;;;;;;;25.33;4.60;;;;;;;17.36;100.00;101175.94;10576967;27;20055;-82
2024/01/19 19:01:52;;;;;;;36.47;5.40;;;;;;;17.34;100.00;101179.50;10546309;28;20040;-80
2024/01/19 19:07:14;;;;;;;26.90;5.20;;;;;;;17.28;100.00;101172.41;10549316;28;20055;-82
2024/01/19 19:12:38;;;;;;;21.95;5.13;;;;;;;17.37;100.00;101169.72;10542897;28;20044;-80
2024/01/19 19:18:01;;;;;;;26.98;5.40;;;;;;;17.49;100.00;101180.31;10553647;28;20096;-83
2024/01/19 19:23:23;;;;;;;27.98;4.95;;;;;;;17.46;100.00;101184.75;10561962;28;20070;-80
2024/01/19 19:28:47;;;;;;;25.15;5.13;;;;;;;17.47;100.00;101207.88;10575241;28;20058;-81
2024/01/19 19:34:10;;;;;;;27.77;5.22;;;;;;;17.43;100.00;101201.69;10565660;28;20044;-85
2024/01/19 19:39:34;;;;;;;30.70;6.05;;;;;;;17.64;100.00;101219.41;10560807;28;20569;-82
2024/01/19 19:44:58;;;;;;;25.00;5.40;;;;;;;17.66;100.00;101193.56;10574491;28;20056;-83
2024/01/19 19:50:23;;;;;;;28.73;5.55;;;;;;;17.55;100.00;101206.06;10546574;28;20077;-82
2024/01/19 19:55:50;;;;;;;27.88;5.10;;;;;;;17.42;100.00;101231.94;10554430;28;20048;-82
2024/01/19 20:01:14;;;;;;;28.65;4.95;;;;;;;17.35;100.00;101232.88;10571770;28;20047;-81
2024/01/19 20:06:36;;;;;;;26.17;4.63;;;;;;;17.27;100.00;101218.66;10573972;28;20265;-78
2024/01/19 20:11:59;;;;;;;36.45;6.13;;;;;;;17.28;100.00;101240.91;10553868;28;20039;-79
2024/01/19 20:17:23;;;;;;;37.88;5.10;;;;;;;17.09;100.00;101243.66;10571810;28;20040;-78
2024/01/19 20:22:45;;;;;;;36.20;5.75;;;;;;;16.96;100.00;101265.03;10573217;28;20166;-79
2024/01/19 20:28:07;;;;;;;23.55;5.88;;;;;;;16.81;100.00;101249.06;10547273;28;20058;-82
2024/01/19 20:33:31;;;;;;;26.23;5.07;;;;;;;16.67;100.00;101241.09;10568750;28;20506;-80
2024/01/19 20:38:54;;;;;;;36.60;9.45;;;;;;;16.66;100.00;101242.00;10592998;28;20494;-80
2024/01/19 20:44:17;;;;;;;36.13;6.50;;;;;;;16.38;100.00;101232.22;10563972;28;20048;-82
2024/01/19 20:49:41;;;;;;;28.25;5.25;;;;;;;16.28;100.00;101220.66;10569616;27;20043;-83
2024/01/19 20:55:06;;;;;;;29.45;5.38;;;;;;;16.39;100.00;101218.88;10581821;28;20132;-81
2024/01/19 21:00:30;;;;;;;24.30;4.57;;;;;;;16.45;100.00;101228.66;10581576;28;20051;-81
2024/01/19 21:05:54;;;;;;;37.85;5.15;;;;;;;16.37;100.00;101231.31;10567179;28;20056;-81
2024/01/19 21:11:17;;;;;;;25.80;4.68;;;;;;;16.30;100.00;101238.44;10566706;28;20468;-81
2024/01/19 21:16:39;;;;;;;34.22;5.18;;;;;;;16.51;100.00;101255.28;10580848;28;20134;-82
2024/01/19 21:22:04;;;;;;;26.92;9.30;;;;;;;16.48;100.00;101256.16;10567162;28;20052;-83
2024/01/19 21:27:28;;;;;;;19.48;8.07;;;;;;;16.17;100.00;101262.41;10580372;28;20462;-81
2024/01/19 21:32:50;;;;;;;43.97;15.55;;;;;;;16.05;100.00;101263.28;10566443;28;20139;-83
2024/01/19 21:38:16;;;;;;;37.95;13.27;;;;;;;15.91;100.00;101257.94;10580169;28;20047;-82
2024/01/19 21:43:39;;;;;;;24.35;4.90;;;;;;;15.66;100.00;101255.22;10565016;27;20061;-83
2024/01/19 21:49:02;;;;;;;25.15;5.57;;;;;;;15.57;100.00;101256.06;10563147;28;20051;-82
2024/01/19 21:54:26;;;;;;;20.45;5.57;;;;;;;15.56;100.00;101270.25;10599527;27;20075;-82
2024/01/19 21:59:49;;;;;;;18.58;5.30;;;;;;;15.34;100.00;101247.09;10572704;28;20047;-81
2024/01/19 22:05:12;;;;;;;25.05;5.65;;;;;;;15.14;100.00;101258.53;10565833;28;20051;-82
2024/01/19 22:10:36;;;;;;;14.07;3.55;;;;;;;14.97;100.00;101267.28;10578257;28;20509;-81
2024/01/19 22:15:58;;;;;;;22.27;3.97;;;;;;;14.79;100.00;101265.41;10578707;28;20052;-81
2024/01/19 22:21:21;;;;;;;22.17;4.72;;;;;;;15.06;100.00;101267.34;10578108;28;20116;-81
2024/01/19 22:26:49;;;;;;;26.42;5.28;;;;;;;14.79;100.00;101273.38;10578652;28;20047;-81
2024/01/19 22:32:11;;;;;;;22.57;7.97;;;;;;;14.67;100.00;101263.56;10563886;28;20165;-82
2024/01/19 22:37:33;;;;;;;18.85;5.95;;;;;;;14.44;100.00;101273.13;10564200;28;20109;-82
2024/01/19 22:42:58;;;;;;;22.13;5.32;;;;;;;14.15;100.00;101272.84;10564004;28;20051;-80
2024/01/19 22:48:20;;;;;;;21.17;4.60;;;;;;;14.06;100.00;101267.44;10563491;28;20051;-81
2024/01/19 22:53:43;;;;;;;18.10;4.40;;;;;;;14.13;100.00;101263.97;10562927;28;20430;-82
2024/01/19 22:59:07;;;;;;;17.05;5.97;;;;;;;14.21;100.00;101267.59;10577773;28;20062;-83
2024/01/19 23:04:29;;;;;;;13.90;3.75;;;;;;;14.10;100.00;101258.66;10563631;28;20361;-82
2024/01/19 23:09:52;;;;;;;17.30;6.88;;;;;;;14.01;100.00;101250.59;10576224;27;20055;-80
2024/01/19 23:15:17;;;;;;;21.75;8.50;;;;;;;13.87;100.00;101252.22;10576984;28;20058;-81
2024/01/19 23:20:41;;;;;;;11.95;3.63;;;;;;;14.03;100.00;101246.19;10548390;28;20047;-80
2024/01/19 23:26:03;;;;;;;17.23;4.20;;;;;;;14.09;100.00;101240.06;10533322;28;20143;-80
2024/01/19 23:31:28;;;;;;;11.20;4.40;;;;;;;14.27;100.00;101230.47;10560756;28;20403;-81
2024/01/19 23:36:50;;;;;;;22.73;4.25;;;;;;;14.28;100.00;101226.94;10575236;28;20092;-82
2024/01/19 23:42:12;;;;;;;11.57;2.53;;;;;;;14.33;100.00;101224.31;10559727;28;20412;-81
2024/01/19 23:47:41;;;;;;;12.43;3.33;;;;;;;14.28;100.00;101221.63;10560772;28;20089;-82
2024/01/19 23:53:04;;;;;;;13.48;2.70;;;;;;;14.17;100.00;101211.81;10588694;27;20492;-82
2024/01/19 23:58:27;;;;;;;19.60;3.40;;;;;;;14.17;100.00;101209.16;10575454;28;20491;-82
